Time;durP1;ratioP1;P1;durP2;ratioP2;P2;SDS_P1;SDS_P2;PMS_P1;PMS_P2;Temp;Humidity;BMP_temperature;BMP_pressure;BME280_temperature;BME280_humidity;BME280_pressure;Samples;Min_cycle;Max_cycle;Signal;HPM_P1;HPM_P2
2023/06/02 00:01:49;;;;;;;;;7.00;7.00;;;;;19.71;46.96;101093.88;4997479;28;45488;-53
2023/06/02 00:04:17;;;;;;;;;11.33;11.00;;;;;19.58;46.99;101094.66;4997707;28;45583;-57
2023/06/02 00:06:45;;;;;;;;;8.33;7.67;;;;;19.65;47.60;101097.78;4997228;28;45446;-57
2023/06/02 00:09:11;;;;;;;;;8.00;7.67;;;;;19.69;47.29;101098.47;4997064;28;45329;-57
2023/06/02 00:11:36;;;;;;;;;10.67;10.67;;;;;19.59;47.25;101101.72;4997114;28;45507;-56
2023/06/02 00:14:03;;;;;;;;;11.00;9.33;;;;;19.48;47.87;101098.88;4997222;28;45448;-56
2023/06/02 00:16:29;;;;;;;;;11.00;9.33;;;;;19.42;47.55;101088.59;4996887;28;45617;-56
2023/06/02 00:18:56;;;;;;;;;9.00;9.00;;;;;19.26;47.84;101090.53;4996978;28;45370;-55
2023/06/02 00:21:22;;;;;;;;;11.33;11.00;;;;;19.34;48.01;101082.91;4996898;28;45413;-55
2023/06/02 00:23:48;;;;;;;;;14.67;11.67;;;;;19.35;47.83;101095.31;4996726;28;45455;-55
2023/06/02 00:26:13;;;;;;;;;9.33;9.33;;;;;19.28;47.73;101096.63;4996995;28;45424;-55
2023/06/02 00:28:38;;;;;;;;;8.00;6.67;;;;;19.16;48.33;101093.81;4996419;28;45469;-57
2023/06/02 00:31:04;;;;;;;;;10.00;10.00;;;;;18.94;48.68;101074.75;4996909;28;45412;-55
2023/06/02 00:33:29;;;;;;;;;14.00;12.67;;;;;18.95;48.35;101073.84;4996626;28;45684;-55
2023/06/02 00:35:55;;;;;;;;;10.33;10.00;;;;;19.00;48.87;101097.53;4996822;28;45404;-56
2023/06/02 00:38:20;;;;;;;;;11.33;9.67;;;;;19.03;48.63;101098.19;4996873;28;45479;-56
2023/06/02 00:40:46;;;;;;;;;11.00;11.00;;;;;18.91;48.40;101101.63;4996927;28;45500;-53
2023/06/02 00:43:11;;;;;;;;;12.00;12.00;;;;;18.87;48.89;101106.28;4996969;28;45587;-54
2023/06/02 00:45:36;;;;;;;;;10.67;10.00;;;;;18.81;48.04;101105.81;4996598;28;45759;-58
2023/06/02 00:48:02;;;;;;;;;12.67;12.67;;;;;18.58;49.23;101083.22;4996820;28;45543;-57
2023/06/02 00:50:29;;;;;;;;;14.33;14.33;;;;;18.62;48.97;101093.59;4979173;28;45441;-60
2023/06/02 00:52:57;;;;;;;;;12.33;11.33;;;;;18.62;49.44;101100.72;4996788;28;45393;-54
2023/06/02 00:55:23;;;;;;;;;12.00;11.33;;;;;18.54;49.43;101094.06;4995119;28;46285;-56
2023/06/02 00:57:51;;;;;;;;;15.00;13.00;;;;;18.57;49.60;101097.50;4996400;28;45357;-57
2023/06/02 01:00:18;;;;;;;;;13.33;13.33;;;;;18.47;49.28;101098.03;4996862;28;45522;-56
2023/06/02 01:02:45;;;;;;;;;12.33;10.67;;;;;18.47;49.39;101090.03;4996367;28;45420;-56
2023/06/02 01:05:12;;;;;;;;;13.33;13.33;;;;;18.45;49.66;101093.75;4997059;28;45629;-58
2023/06/02 01:07:44;;;;;;;;;12.67;10.67;;;;;18.46;49.96;101084.81;4996377;28;45352;-58
2023/06/02 01:10:12;;;;;;;;;16.67;13.00;;;;;18.44;49.72;101097.38;4978775;28;45405;-58
2023/06/02 01:12:38;;;;;;;;;13.67;13.67;;;;;18.52;49.45;101092.44;4978902;28;45508;-57
2023/06/02 01:15:04;;;;;;;;;17.33;14.33;;;;;18.24;49.76;101064.81;4996095;28;46671;-55
2023/06/02 01:17:35;;;;;;;;;16.00;13.00;;;;;18.43;49.72;101091.19;4996487;28;45455;-55
2023/06/02 01:20:08;;;;;;;;;14.00;13.00;;;;;18.47;49.45;101086.53;4996218;28;45443;-59
2023/06/02 01:22:45;;;;;;;;;13.00;13.00;;;;;18.39;49.53;101094.13;4996372;28;45306;-57
2023/06/02 01:25:25;;;;;;;;;16.33;16.33;;;;;18.38;49.30;101097.75;4995749;28;45345;-56
2023/06/02 01:27:51;;;;;;;;;15.67;15.67;;;;;18.39;49.90;101094.13;4996153;28;45494;-59
2023/06/02 01:30:18;;;;;;;;;14.00;14.00;;;;;18.28;49.88;101100.94;4986464;28;45460;-58
2023/06/02 01:33:19;;;;;;;;;14.33;14.33;;;;;18.18;50.01;101105.09;4996331;28;45361;-54
2023/06/02 01:35:48;;;;;;;;;19.00;15.67;;;;;18.19;49.86;101100.63;4983536;28;45483;-57
2023/06/02 01:38:17;;;;;;;;;18.00;16.00;;;;;18.28;49.92;101100.94;4996079;28;45505;-57
2023/06/02 01:40:44;;;;;;;;;18.33;17.00;;;;;18.26;49.80;101094.00;4995529;28;45377;-56
2023/06/02 01:43:10;;;;;;;;;19.67;18.67;;;;;18.17;49.98;101100.72;4995867;28;45434;-58
2023/06/02 01:45:37;;;;;;;;;16.33;16.00;;;;;18.12;50.02;101100.13;4995691;28;46556;-57
2023/06/02 01:48:04;;;;;;;;;17.67;17.67;;;;;18.15;49.83;101094.63;4995881;28;45464;-56
2023/06/02 01:50:30;;;;;;;;;22.00;20.33;;;;;18.02;49.95;101086.50;4996087;28;45151;-57
2023/06/02 01:52:55;;;;;;;;;17.00;17.00;;;;;17.93;50.04;101070.25;4995693;28;45351;-56
2023/06/02 01:55:21;;;;;;;;;18.33;17.33;;;;;17.97;50.10;101091.22;4995710;28;46511;-57
2023/06/02 01:57:46;;;;;;;;;23.33;20.33;;;;;18.00;50.11;101085.75;4995718;28;45437;-58
2023/06/02 02:00:13;;;;;;;;;18.33;16.33;;;;;18.03;50.19;101085.56;4995628;28;45452;-58
2023/06/02 02:02:38;;;;;;;;;17.33;17.33;;;;;18.01;49.84;101087.47;4994630;28;45494;-59
2023/06/02 02:05:04;;;;;;;;;16.67;16.67;;;;;18.00;49.90;101084.88;4995758;28;45400;-57
2023/06/02 02:07:30;;;;;;;;;22.00;19.67;;;;;18.01;49.69;101089.28;4995773;28;45502;-57
2023/06/02 02:09:56;;;;;;;;;15.67;15.67;;;;;17.99;49.58;101094.69;4995684;28;45413;-56
2023/06/02 02:12:22;;;;;;;;;18.33;18.33;;;;;17.85;50.01;101100.81;4995732;28;45583;-58
2023/06/02 02:14:50;;;;;;;;;19.33;17.33;;;;;17.83;49.89;101089.38;4995360;28;45515;-56
2023/06/02 02:17:16;;;;;;;;;18.00;17.00;;;;;17.82;50.33;101094.81;4995396;28;45522;-58
2023/06/02 02:19:42;;;;;;;;;22.33;21.67;;;;;17.71;50.40;101091.88;4995667;28;45330;-58
2023/06/02 02:22:07;;;;;;;;;18.67;18.00;;;;;17.75;50.22;101098.72;4995449;28;45345;-59
2023/06/02 02:24:33;;;;;;;;;17.33;17.33;;;;;17.64;49.94;101078.06;4995163;28;45417;-57
2023/06/02 02:26:58;;;;;;;;;19.00;17.67;;;;;17.78;50.37;101096.72;4993931;28;45470;-57
2023/06/02 02:29:23;;;;;;;;;19.00;18.67;;;;;17.84;50.02;101101.75;4995503;28;45408;-57
2023/06/02 02:31:49;;;;;;;;;20.00;17.67;;;;;17.83;49.92;101091.19;4995426;28;45599;-57
2023/06/02 02:34:14;;;;;;;;;22.33;20.00;;;;;17.97;49.67;101111.69;4995053;28;46013;-57
2023/06/02 02:36:39;;;;;;;;;19.00;17.33;;;;;17.78;49.71;101098.53;4995006;28;51867;-55
2023/06/02 02:39:05;;;;;;;;;21.00;21.00;;;;;17.85;49.92;101102.63;4995063;28;45457;-56
2023/06/02 02:41:31;;;;;;;;;21.67;21.67;;;;;17.80;49.82;101100.22;4995361;28;45442;-58
2023/06/02 02:43:56;;;;;;;;;18.00;16.67;;;;;17.82;49.71;101105.44;4995113;28;46590;-57
2023/06/02 02:46:21;;;;;;;;;22.00;21.00;;;;;17.85;49.88;101098.13;4994864;28;45475;-56
2023/06/02 02:48:46;;;;;;;;;21.00;21.00;;;;;17.72;49.84;101096.25;4995460;28;45754;-58
2023/06/02 02:51:13;;;;;;;;;21.67;19.00;;;;;17.70;49.81;101106.09;4995018;28;45594;-58
2023/06/02 02:53:38;;;;;;;;;20.00;18.67;;;;;17.65;49.94;101106.38;4996837;28;45498;-58
2023/06/02 02:56:04;;;;;;;;;18.33;17.33;;;;;17.64;49.99;101117.97;4998450;28;45516;-58
2023/06/02 02:58:31;;;;;;;;;18.67;18.67;;;;;17.59;49.65;101114.69;4998588;28;45369;-56
2023/06/02 03:00:56;;;;;;;;;18.00;18.00;;;;;17.61;50.12;101113.66;4998486;28;45324;-55
2023/06/02 03:03:22;;;;;;;;;21.67;20.33;;;;;17.58;49.92;101113.00;4998137;28;45309;-57
2023/06/02 03:05:48;;;;;;;;;16.00;16.00;;;;;17.58;50.16;101118.31;4999007;28;45341;-53
2023/06/02 03:08:15;;;;;;;;;20.00;18.33;;;;;17.60;49.62;101119.09;4998356;28;45347;-57
2023/06/02 03:10:41;;;;;;;;;19.00;17.33;;;;;17.49;49.96;101121.47;4998216;28;45361;-56
2023/06/02 03:13:06;;;;;;;;;18.67;18.33;;;;;17.42;50.34;101119.16;4998091;28;45471;-57
2023/06/02 03:15:33;;;;;;;;;21.67;19.00;;;;;17.44;50.18;101116.44;4998271;28;45507;-57
2023/06/02 03:17:59;;;;;;;;;18.00;16.67;;;;;17.54;49.78;101122.06;4998382;28;45516;-54
2023/06/02 03:20:25;;;;;;;;;20.00;19.00;;;;;17.40;49.90;101123.69;4998025;28;45488;-59
2023/06/02 03:22:51;;;;;;;;;24.67;21.33;;;;;17.40;50.07;101121.03;4998057;28;45549;-54
2023/06/02 03:25:20;;;;;;;;;24.00;23.00;;;;;17.25;50.04;101121.03;4997613;28;45523;-56
2023/06/02 03:27:46;;;;;;;;;20.67;19.67;;;;;17.15;50.12;101121.53;4998309;28;45452;-57
2023/06/02 03:30:12;;;;;;;;;19.33;19.33;;;;;17.09;50.51;101118.38;4997782;28;45393;-57
2023/06/02 03:32:37;;;;;;;;;19.33;19.33;;;;;16.99;51.18;101118.84;4998063;28;45474;-56
2023/06/02 03:35:03;;;;;;;;;22.00;19.67;;;;;17.11;50.55;101132.41;4997684;28;45391;-56
2023/06/02 03:37:28;;;;;;;;;16.33;16.33;;;;;17.15;50.43;101123.34;4997906;28;45563;-57
2023/06/02 03:39:53;;;;;;;;;25.00;21.00;;;;;17.04;50.88;101118.63;4998214;28;45405;-58
2023/06/02 03:42:19;;;;;;;;;20.33;20.33;;;;;16.96;50.98;101116.38;4997456;28;57925;-56
2023/06/02 03:44:44;;;;;;;;;23.00;23.00;;;;;16.93;50.57;101121.84;4983947;28;45425;-57
2023/06/02 03:47:09;;;;;;;;;20.00;19.00;;;;;16.86;51.50;101117.78;4997965;28;45376;-56
2023/06/02 03:49:36;;;;;;;;;20.33;20.00;;;;;17.00;50.45;101131.19;4997720;28;45310;-55
2023/06/02 03:52:02;;;;;;;;;19.00;18.33;;;;;16.97;50.44;101127.84;4997704;28;45513;-56
2023/06/02 03:54:27;;;;;;;;;24.33;24.33;;;;;17.03;50.38;101131.97;4997641;28;45665;-55
2023/06/02 03:56:53;;;;;;;;;22.67;20.00;;;;;17.01;50.74;101126.75;4997804;28;45432;-55
2023/06/02 03:59:18;;;;;;;;;21.67;21.67;;;;;17.00;50.68;101127.69;4997789;28;45468;-55
2023/06/02 04:01:43;;;;;;;;;26.00;22.67;;;;;16.93;50.30;101121.84;4997251;28;46582;-57
2023/06/02 04:04:12;;;;;;;;;20.00;20.00;;;;;16.94;50.99;101128.88;4997151;28;45461;-54
2023/06/02 04:06:41;;;;;;;;;22.33;22.33;;;;;16.91;50.56;101134.34;4997782;28;45420;-56
2023/06/02 04:09:10;;;;;;;;;21.33;20.67;;;;;16.91;50.90;101126.38;4997593;28;45370;-58
2023/06/02 04:11:35;;;;;;;;;22.67;22.67;;;;;16.79;50.02;101119.06;4997057;28;45425;-57
2023/06/02 04:14:02;;;;;;;;;28.67;25.00;;;;;16.74;51.45;101126.41;4997527;28;45501;-58
2023/06/02 04:16:27;;;;;;;;;26.00;22.67;;;;;16.84;50.36;101129.44;4997427;28;45477;-57
2023/06/02 04:18:53;;;;;;;;;23.33;21.33;;;;;16.82;50.41;101132.19;4997354;28;45526;-57
2023/06/02 04:21:18;;;;;;;;;22.00;20.00;;;;;16.91;50.89;101131.69;4997044;28;45459;-55
2023/06/02 04:23:43;;;;;;;;;26.33;23.67;;;;;16.80;50.14;101125.25;4996800;28;45460;-56
2023/06/02 04:26:09;;;;;;;;;25.67;19.33;;;;;16.67;50.78;101106.41;4997291;28;45426;-56
2023/06/02 04:28:35;;;;;;;;;25.00;25.00;;;;;16.83;50.43;101133.91;4997329;28;45605;-56
2023/06/02 04:31:02;;;;;;;;;28.00;25.00;;;;;16.90;50.47;101135.31;4997035;28;45478;-56
2023/06/02 04:33:27;;;;;;;;;26.33;24.33;;;;;16.85;50.17;101124.06;4996959;28;45732;-56
2023/06/02 04:35:53;;;;;;;;;23.33;23.00;;;;;16.94;50.46;101136.00;4997219;28;45393;-57
2023/06/02 04:38:19;;;;;;;;;26.67;25.67;;;;;17.02;50.27;101138.25;4997088;28;45187;-53
2023/06/02 04:40:44;;;;;;;;;25.00;24.33;;;;;17.03;49.71;101137.28;4996788;28;46221;-58
2023/06/02 04:43:10;;;;;;;;;23.67;23.67;;;;;16.99;50.33;101142.78;4996986;28;45559;-58
2023/06/02 04:45:35;;;;;;;;;24.33;23.67;;;;;16.93;50.03;101147.56;4996887;28;45473;-57
2023/06/02 04:48:03;;;;;;;;;24.00;20.00;;;;;16.90;49.85;101145.03;4996605;28;46186;-57
2023/06/02 04:50:29;;;;;;;;;26.00;24.33;;;;;16.99;49.83;101142.78;4996831;28;45475;-56
2023/06/02 04:52:54;;;;;;;;;27.33;23.33;;;;;16.91;49.46;101141.47;4996768;28;45417;-55
2023/06/02 04:55:20;;;;;;;;;25.33;24.00;;;;;16.98;50.15;101149.03;4996980;28;45369;-54
2023/06/02 04:57:46;;;;;;;;;25.67;25.67;;;;;16.97;49.41;101157.94;4995375;28;45442;-57
2023/06/02 05:00:12;;;;;;;;;21.00;20.00;;;;;16.94;50.11;101155.44;4996734;28;45453;-56
2023/06/02 05:02:38;;;;;;;;;23.33;22.67;;;;;16.95;49.71;101151.88;4996600;28;45467;-54
2023/06/02 05:05:05;;;;;;;;;27.67;26.33;;;;;17.07;49.79;101154.81;4997179;28;45416;-53
2023/06/02 05:07:30;;;;;;;;;28.67;24.33;;;;;17.00;49.80;101143.63;4996784;28;45579;-58
2023/06/02 05:09:55;;;;;;;;;26.67;25.67;;;;;17.09;49.70;101160.91;4996189;28;46539;-56
2023/06/02 05:12:21;;;;;;;;;24.00;23.33;;;;;17.09;49.69;101152.94;4996719;28;45402;-55
2023/06/02 05:14:46;;;;;;;;;25.67;23.00;;;;;17.15;49.06;101148.13;4996309;28;45428;-54
2023/06/02 05:17:12;;;;;;;;;25.00;23.00;;;;;17.18;49.02;101153.28;4995645;28;45379;-57
2023/06/02 05:19:42;;;;;;;;;27.00;26.67;;;;;17.06;48.82;101147.75;4996447;28;45425;-57
2023/06/02 05:22:07;;;;;;;;;23.33;23.00;;;;;17.04;49.13;101153.16;4996228;28;45464;-54
2023/06/02 05:24:33;;;;;;;;;22.67;20.33;;;;;17.07;48.72;101154.81;4996133;28;45528;-57
2023/06/02 05:26:58;;;;;;;;;24.67;22.67;;;;;17.03;49.03;101150.56;4996298;28;45620;-54
2023/06/02 05:29:23;;;;;;;;;26.00;24.00;;;;;17.08;49.56;101146.72;4996137;28;45621;-55
2023/06/02 05:31:49;;;;;;;;;25.00;22.67;;;;;17.11;49.07;101151.03;4994121;28;47640;-55
2023/06/02 05:34:15;;;;;;;;;28.00;27.33;;;;;17.14;48.79;101146.41;4996242;28;45358;-56
2023/06/02 05:36:40;;;;;;;;;25.67;24.00;;;;;17.20;48.66;101151.41;4996156;28;45490;-53
2023/06/02 05:39:05;;;;;;;;;25.67;25.00;;;;;17.21;48.60;101154.91;4995414;28;58175;-53
2023/06/02 05:41:31;;;;;;;;;24.33;24.33;;;;;17.24;48.36;101154.72;4996039;28;45515;-56
2023/06/02 05:43:56;;;;;;;;;28.00;26.33;;;;;17.16;48.93;101151.63;4996248;28;45421;-55
2023/06/02 05:46:26;;;;;;;;;25.00;23.33;;;;;17.12;48.57;101148.28;4995501;28;46637;-56
2023/06/02 05:48:51;;;;;;;;;23.33;22.00;;;;;17.15;48.50;101137.50;4995917;28;45516;-56
2023/06/02 05:51:16;;;;;;;;;24.33;24.33;;;;;17.22;48.41;101148.63;4995706;28;45422;-56
2023/06/02 05:53:42;;;;;;;;;27.67;26.67;;;;;17.28;48.46;101142.16;4996049;28;45334;-55
2023/06/02 05:56:07;;;;;;;;;24.00;24.00;;;;;17.30;48.18;101150.88;4995658;28;45677;-58
2023/06/02 05:58:39;;;;;;;;;25.33;20.33;;;;;17.26;48.28;101152.00;4995466;28;45364;-54
2023/06/02 06:01:04;;;;;;;;;30.33;27.33;;;;;17.24;48.40;101149.41;4995649;28;45373;-53
2023/06/02 06:03:30;;;;;;;;;28.67;25.67;;;;;17.23;48.57;101145.06;4995935;28;45502;-53
2023/06/02 06:05:55;;;;;;;;;31.67;29.33;;;;;17.22;48.55;101151.28;4996181;28;45640;-56
2023/06/02 06:08:20;;;;;;;;;33.67;29.33;;;;;17.17;48.13;101159.53;4995461;28;46470;-53
2023/06/02 06:10:46;;;;;;;;;27.00;25.67;;;;;17.18;48.63;101142.63;4977862;28;45402;-56
2023/06/02 06:13:11;;;;;;;;;28.67;27.33;;;;;17.31;48.36;101158.78;4995544;28;45627;-57
2023/06/02 06:15:37;;;;;;;;;30.00;29.00;;;;;17.39;47.77;101161.03;4995466;28;45748;-52
2023/06/02 06:18:02;;;;;;;;;33.33;29.00;;;;;17.43;47.73;101155.44;4995397;28;45492;-51
2023/06/02 06:20:27;;;;;;;;;29.67;28.67;;;;;17.49;47.32;101153.38;4995435;28;45361;-50
2023/06/02 06:22:53;;;;;;;;;36.67;28.33;;;;;17.50;47.62;101152.47;4995716;28;45433;-48
2023/06/02 06:25:18;;;;;;;;;36.33;32.00;;;;;17.54;47.45;101157.50;4995028;28;45459;-52
2023/06/02 06:27:43;;;;;;;;;29.33;28.67;;;;;17.51;47.43;101156.81;4995167;28;46494;-55
2023/06/02 06:30:09;;;;;;;;;33.67;28.00;;;;;17.47;46.99;101157.94;4995260;28;45458;-54
2023/06/02 06:32:35;;;;;;;;;28.67;27.33;;;;;17.44;47.75;101156.31;4995494;28;45562;-61
2023/06/02 06:35:00;;;;;;;;;30.00;28.67;;;;;17.33;47.51;101159.56;4993525;28;45583;-61
2023/06/02 06:37:27;;;;;;;;;27.67;27.67;;;;;17.20;47.38;101159.38;4994591;28;46172;-48
2023/06/02 06:39:53;;;;;;;;;33.00;30.67;;;;;17.12;48.20;101160.72;4994039;28;45374;-60
2023/06/02 06:42:18;;;;;;;;;34.33;31.00;;;;;17.14;48.20;101151.75;4995141;28;45476;-61
2023/06/02 06:44:44;;;;;;;;;27.67;26.33;;;;;17.19;48.20;101164.75;4995092;28;45486;-52
2023/06/02 06:47:09;;;;;;;;;32.33;30.67;;;;;17.26;47.99;101163.50;4994727;28;49960;-63
2023/06/02 06:49:34;;;;;;;;;28.67;27.67;;;;;17.28;47.76;101166.94;4994552;28;53394;-61
2023/06/02 06:51:59;;;;;;;;;32.33;30.00;;;;;17.21;47.86;101160.22;4993542;28;45452;-64
2023/06/02 06:54:25;;;;;;;;;32.00;25.67;;;;;16.99;47.71;101137.47;4994975;28;46140;-63
2023/06/02 06:56:51;;;;;;;;;28.33;26.00;;;;;17.16;47.88;101163.13;4992430;28;45607;-65
2023/06/02 06:59:16;;;;;;;;;28.33;27.33;;;;;17.13;47.99;101155.31;4994937;28;45448;-65
2023/06/02 07:01:43;;;;;;;;;33.00;30.00;;;;;17.09;48.52;101161.75;4994642;28;45325;-65
2023/06/02 07:04:09;;;;;;;;;32.33;30.67;;;;;17.15;47.83;101158.75;4993069;28;45436;-63
2023/06/02 07:06:36;;;;;;;;;37.33;33.67;;;;;17.23;48.10;101151.22;4994851;28;45531;-62
2023/06/02 07:09:02;;;;;;;;;29.00;29.00;;;;;17.37;47.80;101168.22;4995029;28;45617;-63
2023/06/02 07:11:27;;;;;;;;;32.33;30.00;;;;;17.47;47.99;101173.91;4994779;28;45494;-66
2023/06/02 07:13:53;;;;;;;;;28.67;28.00;;;;;17.40;47.64;101166.25;4994880;28;45509;-66
2023/06/02 07:16:21;;;;;;;;;29.33;28.67;;;;;17.50;47.36;101169.28;4992977;28;45556;-54
2023/06/02 07:18:46;;;;;;;;;26.67;26.00;;;;;17.54;47.20;101173.47;4993176;28;45548;-51
2023/06/02 07:21:11;;;;;;;;;32.00;30.00;;;;;17.55;47.26;101159.25;4993164;28;45490;-50
2023/06/02 07:23:37;;;;;;;;;33.00;31.33;;;;;17.63;46.73;101170.31;4993430;28;45599;-52
2023/06/02 07:26:02;;;;;;;;;29.00;27.67;;;;;17.60;46.62;101162.50;4989508;28;46578;-51
2023/06/02 07:28:28;;;;;;;;;30.00;25.67;;;;;17.57;46.44;101164.47;5000308;28;45447;-49
2023/06/02 07:30:53;;;;;;;;;28.00;25.00;;;;;17.55;46.32;101163.72;4995072;28;45479;-49
2023/06/02 07:33:19;;;;;;;;;24.33;21.67;;;;;17.39;45.98;101166.34;4995057;28;45442;-50
2023/06/02 07:35:44;;;;;;;;;28.00;26.67;;;;;17.28;46.05;101166.94;4994701;28;46219;-51
2023/06/02 07:38:10;;;;;;;;;24.33;24.00;;;;;17.22;46.41;101153.94;4994218;28;45403;-48
2023/06/02 07:40:35;;;;;;;;;25.67;23.33;;;;;17.22;46.76;101164.59;4997733;28;45499;-51
2023/06/02 07:43:02;;;;;;;;;26.00;25.67;;;;;17.25;46.90;101172.41;4997654;28;45639;-53
2023/06/02 07:45:28;;;;;;;;;26.67;25.00;;;;;17.18;47.05;101160.38;4999110;28;45544;-53
2023/06/02 07:47:54;;;;;;;;;28.33;24.67;;;;;17.26;47.58;101165.28;4979501;28;45495;-49
2023/06/02 07:50:20;;;;;;;;;25.67;25.00;;;;;17.28;47.37;101166.09;4980366;28;45453;-51
2023/06/02 07:52:46;;;;;;;;;27.67;26.33;;;;;17.32;47.66;101173.78;4997843;28;45607;-52
2023/06/02 07:55:12;;;;;;;;;25.00;24.33;;;;;17.33;47.12;101178.19;4997097;28;45598;-50
2023/06/02 07:57:38;;;;;;;;;26.00;24.67;;;;;17.36;47.29;101180.66;4962580;28;45381;-50
2023/06/02 08:00:18;;;;;;;;;25.33;23.67;;;;;17.28;46.71;101166.94;4980225;28;45503;-51
2023/06/02 08:02:46;;;;;;;;;24.00;22.33;;;;;17.38;47.22;101180.56;4980084;28;45636;-49
2023/06/02 08:05:12;;;;;;;;;28.00;27.00;;;;;17.45;47.08;101171.31;4997716;28;45447;-52
2023/06/02 08:07:38;;;;;;;;;24.67;23.33;;;;;17.48;47.00;101173.81;4996520;28;45359;-53
2023/06/02 08:10:04;;;;;;;;;17.67;17.67;;;;;17.49;46.56;101159.59;4998754;28;45326;-52
2023/06/02 08:12:29;;;;;;;;;16.33;16.00;;;;;17.64;46.82;101168.50;5003941;28;45673;-51
2023/06/02 08:14:54;;;;;;;;;20.67;20.00;;;;;17.69;46.50;101152.28;5000362;28;46286;-53
2023/06/02 08:17:20;;;;;;;;;20.67;19.00;;;;;17.75;46.43;101152.78;4995920;28;45408;-50
2023/06/02 08:19:45;;;;;;;;;16.33;15.00;;;;;17.74;46.27;101152.91;4997052;28;49241;-52
2023/06/02 08:22:11;;;;;;;;;17.33;17.33;;;;;17.80;46.02;101155.22;4997571;28;45540;-51
2023/06/02 08:24:36;;;;;;;;;18.67;18.67;;;;;17.83;45.53;101165.69;5003057;28;46219;-51
2023/06/02 08:27:04;;;;;;;;;15.67;15.00;;;;;17.80;45.85;101160.56;4997727;28;45420;-49
2023/06/02 08:29:32;;;;;;;;;20.67;16.67;;;;;17.78;45.20;101157.94;4996313;28;45464;-49
2023/06/02 08:32:01;;;;;;;;;17.67;17.00;;;;;17.73;45.39;101154.69;4996827;28;45345;-51
2023/06/02 08:34:27;;;;;;;;;15.33;15.00;;;;;17.72;45.64;101157.44;4998906;28;47536;-50
2023/06/02 08:36:57;;;;;;;;;18.67;18.67;;;;;17.76;45.25;101158.97;4995456;28;45551;-50
2023/06/02 08:39:29;;;;;;;;;17.00;15.33;;;;;17.78;45.68;101162.41;4978655;28;45337;-52
2023/06/02 08:42:01;;;;;;;;;17.67;17.67;;;;;17.80;46.05;101158.75;4996565;28;45385;-52
2023/06/02 08:44:30;;;;;;;;;12.33;12.33;;;;;17.82;45.84;101148.88;4979173;28;46131;-50
2023/06/02 08:46:56;;;;;;;;;17.33;15.33;;;;;17.93;45.66;101152.72;4995826;28;45458;-48
2023/06/02 08:49:22;;;;;;;;;13.33;12.00;;;;;17.99;45.65;101147.06;4996081;28;45375;-54
2023/06/02 08:51:55;;;;;;;;;12.00;11.33;;;;;17.97;45.37;101159.59;4996590;28;45432;-48
2023/06/02 08:54:21;;;;;;;;;16.00;15.00;;;;;17.95;45.31;101141.06;4996244;28;46136;-51
2023/06/02 08:56:49;;;;;;;;;16.00;16.00;;;;;18.03;45.23;101138.81;4996471;28;45524;-50
2023/06/02 08:59:19;;;;;;;;;16.33;16.33;;;;;17.98;44.97;101135.56;4995944;28;45579;-49
2023/06/02 09:01:45;;;;;;;;;19.67;19.67;;;;;18.03;44.80;101130.81;4982534;28;45477;-52
2023/06/02 09:04:10;;;;;;;;;19.33;17.00;;;;;18.08;45.10;101125.22;4995695;28;46357;-51
2023/06/02 09:06:36;;;;;;;;;21.67;18.00;;;;;18.18;44.64;101142.38;4996503;28;45460;-55
2023/06/02 09:09:02;;;;;;;;;15.33;15.33;;;;;18.16;44.81;101138.97;4978488;28;45433;-55
2023/06/02 09:11:29;;;;;;;;;17.00;17.00;;;;;18.22;44.70;101143.06;4994977;28;45455;-54
2023/06/02 09:13:54;;;;;;;;;19.00;19.00;;;;;18.21;44.89;101144.00;4992820;28;48097;-52
2023/06/02 09:16:21;;;;;;;;;20.00;17.33;;;;;18.27;44.85;101143.66;4986577;28;45380;-56
2023/06/02 09:18:57;;;;;;;;;18.33;17.00;;;;;18.24;44.56;101142.03;4995743;28;45432;-71
2023/06/02 09:21:26;;;;;;;;;26.00;24.00;;;;;18.35;44.09;101141.41;4996515;28;45560;-72
2023/06/02 09:23:52;;;;;;;;;24.33;20.67;;;;;18.31;44.35;101138.03;4990366;28;45476;-73
2023/06/02 09:26:22;;;;;;;;;24.00;20.00;;;;;18.44;44.54;101154.16;5003375;28;45619;-72
2023/06/02 09:29:09;;;;;;;;;19.33;19.33;;;;;18.44;44.51;101147.97;4997789;28;45349;-73
2023/06/02 09:31:44;;;;;;;;;25.33;23.67;;;;;18.45;44.34;101160.34;5004184;28;45511;-72
2023/06/02 09:34:10;;;;;;;;;23.33;20.33;;;;;18.43;43.79;101149.78;4983354;28;45417;-72
2023/06/02 09:36:38;;;;;;;;;20.00;18.67;;;;;18.38;43.78;101138.56;4996186;28;45554;-72
2023/06/02 09:39:04;;;;;;;;;24.00;19.67;;;;;18.40;44.19;101128.63;4966336;28;45445;-72
2023/06/02 09:41:31;;;;;;;;;23.00;20.33;;;;;18.49;44.15;101129.91;4978511;28;45437;-71
2023/06/02 09:43:56;;;;;;;;;19.67;19.67;;;;;18.58;44.05;101136.50;4995970;28;46333;-71
2023/06/02 09:46:23;;;;;;;;;19.67;18.00;;;;;18.57;44.01;101130.31;4999216;28;45535;-71
2023/06/02 09:48:56;;;;;;;;;22.00;21.33;;;;;18.64;43.89;101136.13;4996152;28;45405;-71
2023/06/02 09:51:26;;;;;;;;;23.33;22.67;;;;;18.66;43.88;101139.56;4994300;28;45598;-64
2023/06/02 09:53:51;;;;;;;;;19.67;19.00;;;;;18.64;43.69;101126.31;4995852;28;45429;-66
2023/06/02 09:56:21;;;;;;;;;18.00;17.67;;;;;18.69;43.22;101129.56;4996631;28;45357;-65
2023/06/02 09:58:47;;;;;;;;;20.67;18.33;;;;;18.65;43.34;101127.19;4995989;28;45460;-61
2023/06/02 10:01:13;;;;;;;;;22.00;18.33;;;;;18.68;43.69;101127.00;4994551;28;45456;-61
2023/06/02 10:03:43;;;;;;;;;21.33;19.67;;;;;18.69;43.38;101134.03;5006934;28;45530;-61
2023/06/02 10:06:38;;;;;;;;;19.33;17.67;;;;;18.70;43.59;101141.09;4995943;28;45438;-61
2023/06/02 10:09:04;;;;;;;;;20.67;19.00;;;;;18.75;43.46;101139.88;4995844;28;45523;-61
2023/06/02 10:12:01;;;;;;;;;18.67;18.00;;;;;18.73;43.36;101144.41;4997548;28;45480;-59
2023/06/02 10:15:05;;;;;;;;;23.33;22.00;;;;;18.74;43.06;101130.16;4999872;28;46630;-61
2023/06/02 10:17:31;;;;;;;;;23.00;20.67;;;;;18.82;43.48;101137.69;4990739;28;45615;-56
2023/06/02 10:20:16;;;;;;;;;17.33;17.33;;;;;18.82;43.83;101127.03;4996132;28;45703;-64
2023/06/02 10:22:53;;;;;;;;;18.00;16.00;;;;;18.88;43.18;101128.47;4997164;28;45522;-61
2023/06/02 10:25:44;;;;;;;;;27.33;22.67;;;;;18.84;43.26;101121.63;4994888;28;45390;-66
2023/06/02 10:28:11;;;;;;;;;23.67;23.67;;;;;18.91;43.48;101120.28;4995152;28;45400;-66
2023/06/02 10:30:37;;;;;;;;;23.67;23.00;;;;;18.94;43.59;101117.41;4995215;28;45484;-63
2023/06/02 10:33:02;;;;;;;;;24.33;21.33;;;;;18.97;43.89;101117.25;4991215;28;45593;-60
2023/06/02 10:35:58;;;;;;;;;21.33;21.33;;;;;19.02;43.11;101119.59;4994417;28;46172;-62
2023/06/02 10:38:31;;;;;;;;;24.00;23.67;;;;;19.07;43.44;101109.50;4993963;28;45525;-55
2023/06/02 10:40:56;;;;;;;;;20.33;19.00;;;;;19.15;43.03;101131.22;4995483;28;45476;-56
2023/06/02 10:43:22;;;;;;;;;24.00;22.67;;;;;19.15;42.70;101126.72;4992749;28;45576;-59
2023/06/02 10:45:48;;;;;;;;;23.00;20.00;;;;;19.10;42.14;101115.53;4992592;28;45498;-59
2023/06/02 10:48:39;;;;;;;;;17.33;17.33;;;;;19.17;42.67;101124.84;4992312;28;45507;-59
2023/06/02 10:51:10;;;;;;;;;23.00;20.67;;;;;19.16;42.84;101120.47;4994168;28;45579;-59
2023/06/02 10:53:57;;;;;;;;;27.67;26.33;;;;;19.22;42.71;101119.22;4994182;28;45532;-59
2023/06/02 10:56:42;;;;;;;;;22.33;20.67;;;;;19.28;43.15;101113.50;4994278;28;46507;-59
2023/06/02 10:59:09;;;;;;;;;19.00;18.67;;;;;19.35;43.01;101116.63;4986732;28;45438;-58
2023/06/02 11:01:51;;;;;;;;;19.67;18.67;;;;;19.38;42.96;101116.44;4994429;28;45464;-59
2023/06/02 11:04:33;;;;;;;;;21.00;19.33;;;;;19.41;42.90;101113.56;4994070;28;45420;-60
2023/06/02 11:07:18;;;;;;;;;25.00;20.33;;;;;19.39;42.34;101107.47;4983170;28;47310;-59
2023/06/02 11:09:47;;;;;;;;;22.67;20.67;;;;;19.48;42.83;101112.22;5002006;28;45535;-59
2023/06/02 11:12:13;;;;;;;;;23.33;22.67;;;;;19.52;42.45;101107.53;4998676;28;45524;-59